Terminal Aerodrome Forecast
Issued by NWS

Home | Current Version | Previous Version | Text Only | Print | Product List | Glossary On
Versions: 1 2 3 4 5 6 7 8 9 10 11 12 13 14 15 16 17 18 19 20 21 22 23 24
000
FTUS43 KICT 252300
TAFHUT
TAF
KHUT 252326Z 2600/2624 16007KT P6SM SKC
     FM260900 14006KT 4SM BR SKC
      TEMPO 2610/2614 2SM BR BKN006
     FM261500 18014G24KT P6SM SCT250=

USA.gov is the U.S. government's official web portal to all federal, state and local government web resources and services.